createdAt,value
2023-05-14T00:01:15.440Z,5.70
2023-05-14T00:03:42.071Z,5.15
2023-05-14T00:06:09.510Z,5.40
2023-05-14T00:08:36.261Z,6.50
2023-05-14T00:11:02.779Z,5.80
2023-05-14T00:13:29.386Z,6.50
2023-05-14T00:15:55.983Z,6.05
2023-05-14T00:18:22.493Z,6.55
2023-05-14T00:20:49.331Z,7.18
2023-05-14T00:23:15.808Z,6.15
2023-05-14T00:25:42.314Z,7.70
2023-05-14T00:28:08.829Z,7.68
2023-05-14T00:30:35.525Z,7.15
2023-05-14T00:33:02.067Z,8.98
2023-05-14T00:35:28.682Z,7.53
2023-05-14T00:37:55.205Z,6.95
2023-05-14T00:40:25.968Z,6.50
2023-05-14T00:42:53.043Z,7.03
2023-05-14T00:45:19.592Z,6.68
2023-05-14T00:47:46.374Z,6.90
2023-05-14T00:50:14.546Z,5.95
2023-05-14T00:52:41.297Z,6.68
2023-05-14T00:55:08.580Z,6.95
2023-05-14T00:57:36.449Z,6.63
2023-05-14T01:00:04.038Z,6.40
2023-05-14T01:02:30.891Z,6.07
2023-05-14T01:04:57.626Z,5.45
2023-05-14T01:07:42.199Z,6.80
2023-05-14T01:10:11.489Z,6.43
2023-05-14T01:12:40.748Z,5.22
2023-05-14T01:15:22.702Z,5.55
2023-05-14T01:17:55.348Z,6.18
2023-05-14T01:20:22.517Z,6.28
2023-05-14T01:22:49.284Z,6.15
2023-05-14T01:25:15.730Z,6.20
2023-05-14T01:28:28.682Z,6.47
2023-05-14T01:31:07.091Z,5.53
2023-05-14T01:33:36.176Z,4.65
2023-05-14T01:38:31.746Z,5.72
2023-05-14T01:40:59.361Z,5.72
2023-05-14T01:43:26.206Z,6.53
2023-05-14T01:45:55.314Z,5.32
2023-05-14T01:50:48.726Z,4.68
2023-05-14T01:53:16.676Z,5.15
2023-05-14T01:55:43.213Z,5.15
2023-05-14T01:58:09.766Z,5.55
2023-05-14T02:00:36.206Z,5.57
2023-05-14T02:03:02.709Z,5.65
2023-05-14T02:05:29.248Z,6.00
2023-05-14T02:07:56.032Z,5.55
2023-05-14T02:10:22.764Z,5.65
2023-05-14T02:12:49.453Z,4.50
2023-05-14T02:15:15.945Z,5.88
2023-05-14T02:17:42.512Z,4.55
2023-05-14T02:20:10.315Z,5.88
2023-05-14T02:22:37.206Z,5.05
2023-05-14T02:25:03.980Z,5.03
2023-05-14T02:27:30.478Z,5.85
2023-05-14T02:30:00.654Z,5.20
2023-05-14T02:32:28.650Z,5.30
2023-05-14T02:34:55.212Z,4.38
2023-05-14T02:37:21.793Z,5.65
2023-05-14T02:39:49.069Z,4.47
2023-05-14T02:42:15.563Z,5.35
2023-05-14T02:44:42.072Z,5.05
2023-05-14T02:47:08.621Z,4.68
2023-05-14T02:49:35.109Z,4.82
2023-05-14T02:52:01.589Z,5.32
2023-05-14T02:54:28.108Z,6.07
2023-05-14T02:56:54.578Z,5.38
2023-05-14T02:59:21.321Z,4.40
2023-05-14T03:01:48.331Z,5.43
2023-05-14T03:04:15.727Z,5.32
2023-05-14T03:06:42.243Z,5.47
2023-05-14T03:09:08.777Z,5.38
2023-05-14T03:11:35.428Z,4.72
2023-05-14T03:14:01.906Z,4.80
2023-05-14T03:16:28.403Z,4.97
2023-05-14T03:18:54.927Z,5.28
2023-05-14T03:21:21.567Z,5.00
2023-05-14T03:23:48.006Z,5.50
2023-05-14T03:26:14.623Z,5.90
2023-05-14T03:28:41.118Z,5.63
2023-05-14T03:31:07.742Z,5.28
2023-05-14T03:33:34.307Z,5.55
2023-05-14T03:36:00.764Z,5.18
2023-05-14T03:38:27.276Z,5.72
2023-05-14T03:40:53.785Z,5.28
2023-05-14T03:43:20.258Z,5.68
2023-05-14T03:45:47.147Z,5.82
2023-05-14T03:48:13.667Z,5.13
2023-05-14T03:50:40.205Z,5.25
2023-05-14T03:53:06.657Z,5.70
2023-05-14T03:59:13.873Z,5.47
2023-05-14T04:01:40.508Z,5.40
2023-05-14T04:04:07.132Z,6.20
2023-05-14T04:06:33.898Z,5.88
2023-05-14T04:09:00.410Z,6.18
2023-05-14T04:11:26.864Z,5.25
2023-05-14T04:13:53.418Z,5.70
2023-05-14T04:16:19.914Z,5.70
2023-05-14T04:18:46.789Z,5.32
2023-05-14T04:21:13.317Z,5.72
2023-05-14T04:23:39.803Z,5.75
2023-05-14T04:26:06.380Z,6.13
2023-05-14T04:28:32.880Z,6.10
2023-05-14T04:30:59.349Z,5.43
2023-05-14T04:33:25.865Z,5.70
2023-05-14T04:35:52.710Z,5.70
2023-05-14T04:38:19.233Z,5.45
2023-05-14T04:40:45.797Z,6.28
2023-05-14T04:43:12.288Z,6.43
2023-05-14T04:45:38.796Z,6.00
2023-05-14T04:48:07.682Z,6.70
2023-05-14T04:50:34.882Z,7.30
2023-05-14T04:53:01.420Z,7.43
2023-05-14T04:55:27.959Z,7.22
2023-05-14T04:57:54.572Z,6.97
2023-05-14T05:00:22.146Z,8.38
2023-05-14T05:02:48.984Z,7.30
2023-05-14T05:05:15.485Z,6.90
2023-05-14T05:07:41.932Z,7.95
2023-05-14T05:10:08.878Z,7.45
2023-05-14T05:12:35.431Z,7.80
2023-05-14T05:15:02.228Z,7.05
2023-05-14T05:17:29.662Z,7.55
2023-05-14T05:19:56.347Z,6.63
2023-05-14T05:22:23.667Z,7.00
2023-05-14T05:24:50.255Z,6.78
2023-05-14T05:27:16.969Z,6.75
2023-05-14T05:29:44.557Z,7.55
2023-05-14T05:32:11.089Z,7.30
2023-05-14T05:34:37.641Z,7.53
2023-05-14T05:37:05.943Z,7.50
2023-05-14T05:39:34.929Z,7.55
2023-05-14T05:42:02.692Z,8.13
2023-05-14T05:44:29.295Z,8.38
2023-05-14T05:46:57.400Z,7.97
2023-05-14T05:49:24.048Z,8.48
2023-05-14T05:51:50.700Z,7.78
2023-05-14T05:54:17.234Z,8.20
2023-05-14T05:56:43.768Z,7.47
2023-05-14T05:59:10.305Z,7.47
2023-05-14T06:01:37.270Z,8.10
2023-05-14T06:04:06.212Z,8.00
2023-05-14T06:08:59.523Z,7.68
2023-05-14T06:11:26.566Z,8.38
2023-05-14T06:13:53.107Z,8.85
2023-05-14T06:16:19.738Z,7.45
2023-05-14T06:18:46.539Z,6.90
2023-05-14T06:21:13.121Z,8.82
2023-05-14T06:23:39.924Z,9.38
2023-05-14T06:26:06.434Z,8.95
2023-05-14T06:28:32.940Z,9.68
2023-05-14T06:30:59.408Z,10.20
2023-05-14T06:33:30.811Z,9.98
2023-05-14T06:36:01.075Z,9.07
2023-05-14T06:38:27.684Z,9.02
2023-05-14T06:40:54.234Z,9.95
2023-05-14T06:43:20.895Z,10.63
2023-05-14T06:45:51.343Z,8.25
2023-05-14T06:48:19.185Z,8.77
2023-05-14T06:50:47.178Z,9.90
2023-05-14T06:53:14.226Z,8.52
2023-05-14T06:55:41.140Z,8.23
2023-05-14T06:58:08.192Z,8.23
2023-05-14T07:00:34.923Z,8.15
2023-05-14T07:03:01.596Z,7.70
2023-05-14T07:05:28.128Z,7.40
2023-05-14T07:07:54.712Z,7.45
2023-05-14T07:10:21.415Z,7.75
2023-05-14T07:12:48.648Z,8.10
2023-05-14T07:15:15.137Z,7.47
2023-05-14T07:17:41.677Z,8.18
2023-05-14T07:20:08.694Z,7.55
2023-05-14T07:22:35.376Z,7.05
2023-05-14T07:25:02.841Z,7.03
2023-05-14T07:27:29.359Z,8.25
2023-05-14T07:29:56.166Z,7.50
2023-05-14T07:32:24.260Z,6.85
2023-05-14T07:34:50.834Z,6.78
2023-05-14T07:37:17.345Z,6.80
2023-05-14T07:39:43.823Z,6.13
2023-05-14T07:42:10.299Z,5.90
2023-05-14T07:44:36.854Z,6.70
2023-05-14T07:47:04.259Z,5.72
2023-05-14T07:49:30.812Z,5.78
2023-05-14T07:51:57.292Z,6.32
2023-05-14T07:54:23.788Z,5.53
2023-05-14T07:56:50.337Z,5.43
2023-05-14T07:59:16.863Z,4.60
2023-05-14T08:01:43.381Z,4.00
2023-05-14T08:04:11.812Z,4.20
2023-05-14T08:09:07.425Z,3.70
2023-05-14T08:11:34.949Z,4.35
2023-05-14T08:14:01.520Z,3.80
2023-05-14T08:16:28.078Z,3.90
2023-05-14T08:18:54.698Z,3.60
2023-05-14T08:21:21.177Z,3.63
2023-05-14T08:23:47.666Z,4.38
2023-05-14T08:26:14.127Z,4.22
2023-05-14T08:28:40.605Z,3.50
2023-05-14T08:31:07.141Z,3.00
2023-05-14T08:33:33.603Z,3.30
2023-05-14T08:36:00.620Z,3.28
2023-05-14T08:38:27.176Z,3.00
2023-05-14T08:41:00.607Z,3.33
2023-05-14T08:43:35.434Z,3.28
2023-05-14T08:46:05.855Z,3.25
2023-05-14T08:48:34.142Z,3.40
2023-05-14T08:53:27.426Z,3.35
2023-05-14T08:55:54.232Z,3.30
2023-05-14T08:58:20.788Z,3.15
2023-05-14T09:00:47.768Z,3.20
2023-05-14T09:03:15.005Z,3.83
2023-05-14T09:05:41.971Z,3.35
2023-05-14T09:08:08.497Z,5.30
2023-05-14T09:10:34.987Z,3.97
2023-05-14T09:13:01.502Z,4.47
2023-05-14T09:15:29.051Z,3.78
2023-05-14T09:17:56.783Z,4.22
2023-05-14T09:20:24.775Z,3.53
2023-05-14T09:22:54.838Z,3.90
2023-05-14T09:25:27.465Z,4.18
2023-05-14T09:27:57.280Z,3.67
2023-05-14T09:30:26.726Z,4.15
2023-05-14T09:36:13.289Z,5.28
2023-05-14T09:38:58.056Z,4.65
2023-05-14T09:41:24.877Z,3.17
2023-05-14T09:43:51.827Z,2.50
2023-05-14T09:46:18.380Z,2.70
2023-05-14T09:51:32.217Z,2.28
2023-05-14T09:53:58.875Z,2.42
2023-05-14T09:56:26.180Z,2.22
2023-05-14T09:58:52.759Z,2.05
2023-05-14T10:01:20.715Z,2.35
2023-05-14T10:03:47.671Z,2.58
2023-05-14T10:06:17.645Z,2.75
2023-05-14T10:08:46.622Z,2.10
2023-05-14T10:11:15.572Z,2.20
2023-05-14T10:13:50.052Z,2.30
2023-05-14T10:18:51.853Z,2.30
2023-05-14T10:21:20.943Z,2.30
2023-05-14T10:23:49.081Z,2.30
2023-05-14T10:26:16.179Z,2.20
2023-05-14T10:28:43.649Z,2.25
2023-05-14T10:31:10.548Z,2.20
2023-05-14T10:33:49.868Z,2.17
2023-05-14T10:36:20.351Z,2.30
2023-05-14T10:38:47.016Z,2.13
2023-05-14T10:41:18.162Z,2.20
2023-05-14T10:43:45.066Z,2.05
2023-05-14T10:46:13.916Z,1.88
2023-05-14T10:48:44.432Z,2.03
2023-05-14T10:51:11.874Z,1.88
2023-05-14T10:53:43.521Z,2.22
2023-05-14T10:56:12.227Z,2.00
2023-05-14T10:58:43.343Z,1.77
2023-05-14T11:01:12.221Z,1.80
2023-05-14T11:03:42.078Z,2.20
2023-05-14T11:06:10.126Z,1.95
2023-05-14T11:08:37.159Z,2.00
2023-05-14T11:11:03.680Z,1.67
2023-05-14T11:13:30.281Z,1.80
2023-05-14T11:16:02.219Z,1.90
2023-05-14T11:18:38.600Z,1.90
2023-05-14T11:21:05.271Z,1.73
2023-05-14T11:23:31.893Z,1.90
2023-05-14T11:25:58.467Z,1.98
2023-05-14T11:28:26.718Z,1.85
2023-05-14T11:33:21.134Z,1.70
2023-05-14T11:35:48.405Z,1.92
2023-05-14T11:38:19.388Z,2.10
2023-05-14T11:40:55.999Z,2.15
2023-05-14T11:43:28.420Z,1.83
2023-05-14T11:45:55.582Z,2.00
2023-05-14T11:48:22.991Z,2.05
2023-05-14T11:50:50.916Z,2.00
2023-05-14T11:53:26.413Z,1.88
2023-05-14T11:55:54.632Z,2.13
2023-05-14T12:00:52.007Z,2.08
2023-05-14T12:03:25.862Z,1.90
2023-05-14T12:06:00.525Z,1.75
2023-05-14T12:10:54.880Z,2.08
2023-05-14T12:13:21.835Z,1.70
2023-05-14T12:15:55.694Z,1.77
2023-05-14T12:18:25.238Z,1.98
2023-05-14T12:20:52.174Z,1.67
2023-05-14T12:23:32.125Z,1.60
2023-05-14T12:26:06.703Z,1.67
2023-05-14T12:28:38.087Z,1.90
2023-05-14T12:31:05.644Z,1.90
2023-05-14T12:33:32.226Z,1.90
2023-05-14T12:36:09.901Z,2.03
2023-05-14T12:38:41.306Z,1.70
2023-05-14T12:41:07.888Z,1.75
2023-05-14T12:43:34.349Z,1.88
2023-05-14T12:46:00.868Z,1.60
2023-05-14T12:48:27.464Z,1.90
2023-05-14T12:50:53.988Z,1.90
2023-05-14T12:53:20.686Z,2.00
2023-05-14T12:55:47.217Z,1.95
2023-05-14T12:58:13.773Z,2.25
2023-05-14T13:00:40.266Z,2.10
2023-05-14T13:03:06.788Z,2.15
2023-05-14T13:05:33.393Z,1.83
2023-05-14T13:08:02.230Z,1.95
2023-05-14T13:10:28.695Z,1.95
2023-05-14T13:12:56.329Z,2.10
2023-05-14T13:15:23.093Z,2.03
2023-05-14T13:17:49.727Z,1.73
2023-05-14T13:20:18.233Z,1.77
2023-05-14T13:22:45.023Z,1.70
2023-05-14T13:25:11.565Z,1.70
2023-05-14T13:27:38.090Z,1.98
2023-05-14T13:30:04.939Z,1.65
2023-05-14T13:32:31.433Z,1.77
2023-05-14T13:34:57.979Z,2.03
2023-05-14T13:37:25.716Z,1.67
2023-05-14T13:39:52.208Z,1.80
2023-05-14T13:42:18.693Z,1.70
2023-05-14T13:44:45.146Z,1.95
2023-05-14T13:47:11.645Z,1.75
2023-05-14T13:49:38.092Z,1.75
2023-05-14T13:52:07.646Z,1.77
2023-05-14T13:54:34.135Z,1.65
2023-05-14T13:57:00.682Z,1.75
2023-05-14T13:59:27.826Z,1.63
2023-05-14T14:01:54.438Z,1.67
2023-05-14T14:04:21.041Z,1.92
2023-05-14T14:06:47.582Z,1.90
2023-05-14T14:09:14.479Z,1.50
2023-05-14T14:11:41.346Z,1.98
2023-05-14T14:14:07.809Z,1.92
2023-05-14T14:16:34.289Z,1.85
2023-05-14T14:19:00.930Z,1.80
2023-05-14T14:21:27.554Z,1.50
2023-05-14T14:23:54.290Z,1.50
2023-05-14T14:26:21.253Z,1.60
2023-05-14T14:28:47.771Z,1.83
2023-05-14T14:31:14.378Z,2.10
2023-05-14T14:33:41.051Z,1.92
2023-05-14T14:36:07.720Z,1.92
2023-05-14T14:38:34.342Z,1.70
2023-05-14T14:41:03.133Z,1.88
2023-05-14T14:43:29.837Z,1.80
2023-05-14T14:45:56.309Z,1.90
2023-05-14T14:48:26.944Z,1.90
2023-05-14T14:50:54.990Z,1.83
2023-05-14T14:53:22.537Z,2.58
2023-05-14T14:55:49.824Z,2.17
2023-05-14T14:58:18.027Z,2.38
2023-05-14T15:05:37.939Z,1.88
2023-05-14T15:08:04.881Z,2.10
2023-05-14T15:10:31.886Z,1.92
2023-05-14T15:12:59.249Z,1.90
2023-05-14T15:15:26.581Z,1.85
2023-05-14T15:17:53.454Z,2.10
2023-05-14T15:20:20.014Z,2.13
2023-05-14T15:22:46.600Z,2.53
2023-05-14T15:25:13.054Z,1.88
2023-05-14T15:27:39.521Z,2.00
2023-05-14T15:30:07.307Z,1.83
2023-05-14T15:32:34.066Z,2.10
2023-05-14T15:35:01.095Z,2.30
2023-05-14T15:37:27.639Z,2.25
2023-05-14T15:39:54.213Z,2.28
2023-05-14T15:42:21.171Z,2.20
2023-05-14T15:44:47.645Z,1.90
2023-05-14T15:47:14.147Z,2.40
2023-05-14T15:49:40.715Z,1.98
2023-05-14T15:52:07.523Z,1.90
2023-05-14T15:54:33.995Z,2.00
2023-05-14T15:57:00.983Z,1.92
2023-05-14T15:59:27.542Z,2.20
2023-05-14T16:01:54.129Z,2.28
2023-05-14T16:04:20.811Z,2.47
2023-05-14T16:06:47.337Z,2.05
2023-05-14T16:09:14.079Z,1.80
2023-05-14T16:11:40.654Z,2.13
2023-05-14T16:14:07.275Z,1.90
2023-05-14T16:16:33.835Z,2.05
2023-05-14T16:19:00.396Z,2.50
2023-05-14T16:21:27.403Z,2.30
2023-05-14T16:23:53.945Z,2.35
2023-05-14T16:26:21.038Z,2.47
2023-05-14T16:28:48.111Z,2.17
2023-05-14T16:31:15.441Z,2.25
2023-05-14T16:33:42.044Z,2.30
2023-05-14T16:36:09.042Z,2.42
2023-05-14T16:38:38.716Z,2.47
2023-05-14T16:41:11.458Z,2.22
2023-05-14T16:43:37.987Z,2.30
2023-05-14T16:46:05.990Z,2.50
2023-05-14T16:48:32.520Z,2.53
2023-05-14T16:50:59.551Z,2.60
2023-05-14T16:53:26.477Z,2.45
2023-05-14T16:55:53.099Z,2.78
2023-05-14T16:58:19.640Z,2.45
2023-05-14T17:00:46.168Z,2.88
2023-05-14T17:03:12.737Z,2.78
2023-05-14T17:05:39.311Z,2.58
2023-05-14T17:08:06.439Z,2.42
2023-05-14T17:10:33.319Z,2.65
2023-05-14T17:13:00.433Z,2.70
2023-05-14T17:15:26.957Z,2.70
2023-05-14T17:17:54.186Z,2.63
2023-05-14T17:20:20.867Z,2.30
2023-05-14T17:22:47.507Z,2.20
2023-05-14T17:25:14.119Z,2.38
2023-05-14T17:27:40.683Z,2.42
2023-05-14T17:30:07.872Z,2.60
2023-05-14T17:32:34.566Z,2.40
2023-05-14T17:35:01.316Z,2.55
2023-05-14T17:37:27.837Z,2.50
2023-05-14T17:39:55.551Z,2.67
2023-05-14T17:42:22.099Z,2.45
2023-05-14T17:44:48.651Z,2.42
2023-05-14T17:47:15.550Z,2.63
2023-05-14T17:49:42.088Z,2.58
2023-05-14T17:52:08.681Z,2.47
2023-05-14T17:54:35.141Z,2.70
2023-05-14T17:57:01.945Z,2.47
2023-05-14T17:59:28.555Z,2.42
2023-05-14T18:01:55.043Z,2.72
2023-05-14T18:04:21.566Z,2.50
2023-05-14T18:06:48.120Z,2.40
2023-05-14T18:09:15.211Z,2.58
2023-05-14T18:11:41.766Z,3.35
2023-05-14T18:14:08.456Z,2.60
2023-05-14T18:16:36.474Z,2.50
2023-05-14T18:19:03.080Z,2.60
2023-05-14T18:21:29.590Z,2.75
2023-05-14T18:23:56.135Z,2.53
2023-05-14T18:26:23.127Z,2.35
2023-05-14T18:28:49.704Z,2.60
2023-05-14T18:31:16.287Z,2.40
2023-05-14T18:33:43.175Z,2.65
2023-05-14T18:36:09.729Z,2.63
2023-05-14T18:38:36.221Z,2.55
2023-05-14T18:41:02.969Z,2.70
2023-05-14T18:43:29.434Z,3.10
2023-05-14T18:45:56.065Z,2.83
2023-05-14T18:48:23.248Z,2.60
2023-05-14T18:50:49.741Z,2.75
2023-05-14T18:53:16.418Z,2.63
2023-05-14T18:55:43.027Z,2.40
2023-05-14T18:58:11.606Z,2.90
2023-05-14T19:03:04.525Z,2.65
2023-05-14T19:05:31.241Z,2.97
2023-05-14T19:07:57.876Z,2.53
2023-05-14T19:10:24.421Z,3.15
2023-05-14T19:12:50.906Z,3.20
2023-05-14T19:15:17.447Z,2.88
2023-05-14T19:17:44.833Z,2.83
2023-05-14T19:20:11.866Z,2.70
2023-05-14T19:22:38.361Z,3.00
2023-05-14T19:25:06.900Z,2.83
2023-05-14T19:27:34.488Z,2.90
2023-05-14T19:30:00.962Z,2.42
2023-05-14T19:32:27.595Z,2.90
2023-05-14T19:34:54.093Z,3.50
2023-05-14T19:37:21.300Z,3.28
2023-05-14T19:39:47.842Z,2.85
2023-05-14T19:42:14.320Z,2.50
2023-05-14T19:44:40.814Z,3.40
2023-05-14T19:47:07.775Z,2.90
2023-05-14T19:49:34.424Z,2.97
2023-05-14T19:52:07.031Z,2.70
2023-05-14T19:54:45.471Z,3.35
2023-05-14T19:57:23.947Z,2.67
2023-05-14T19:59:50.410Z,3.10
2023-05-14T20:02:21.665Z,3.25
2023-05-14T20:04:48.609Z,3.30
2023-05-14T20:07:15.653Z,3.33
2023-05-14T20:09:42.377Z,2.85
2023-05-14T20:12:09.575Z,3.13
2023-05-14T20:14:36.200Z,2.80
2023-05-14T20:17:03.570Z,3.30
2023-05-14T20:19:30.355Z,3.03
2023-05-14T20:21:56.950Z,2.92
2023-05-14T20:24:23.490Z,3.38
2023-05-14T20:26:50.450Z,3.53
2023-05-14T20:29:16.993Z,3.20
2023-05-14T20:31:43.518Z,3.05
2023-05-14T20:34:10.033Z,3.25
2023-05-14T20:36:37.393Z,3.30
2023-05-14T20:39:06.128Z,3.40
2023-05-14T20:43:59.152Z,3.17
2023-05-14T20:46:29.107Z,3.05
2023-05-14T20:48:56.866Z,3.22
2023-05-14T20:51:23.377Z,3.97
2023-05-14T20:53:49.857Z,3.55
2023-05-14T20:56:16.392Z,3.20
2023-05-14T20:58:42.828Z,3.40
2023-05-14T21:01:09.592Z,3.42
2023-05-14T21:03:36.302Z,3.70
2023-05-14T21:06:03.253Z,3.70
2023-05-14T21:08:32.502Z,3.65
2023-05-14T21:10:59.071Z,3.95
2023-05-14T21:13:25.553Z,3.50
2023-05-14T21:15:52.147Z,3.03
2023-05-14T21:18:18.651Z,3.70
2023-05-14T21:20:45.107Z,3.60
2023-05-14T21:23:12.653Z,3.88
2023-05-14T21:25:39.216Z,4.03
2023-05-14T21:28:05.686Z,3.58
2023-05-14T21:30:32.247Z,3.38
2023-05-14T21:32:58.790Z,3.47
2023-05-14T21:35:25.632Z,3.78
2023-05-14T21:37:52.444Z,3.70
2023-05-14T21:40:19.001Z,3.40
2023-05-14T21:42:45.544Z,4.25
2023-05-14T21:45:12.062Z,4.85
2023-05-14T21:47:39.089Z,4.13
2023-05-14T21:50:06.839Z,3.92
2023-05-14T21:52:33.776Z,4.65
2023-05-14T21:55:00.411Z,4.30
2023-05-14T21:57:28.414Z,4.40
2023-05-14T21:59:55.397Z,4.30
2023-05-14T22:02:21.983Z,4.88
2023-05-14T22:04:48.464Z,4.13
2023-05-14T22:07:14.964Z,5.35
2023-05-14T22:09:41.531Z,4.63
2023-05-14T22:12:08.148Z,5.07
2023-05-14T22:14:34.640Z,4.97
2023-05-14T22:17:01.118Z,5.70
2023-05-14T22:19:28.054Z,5.20
2023-05-14T22:21:54.606Z,5.45
2023-05-14T22:24:21.094Z,6.10
2023-05-14T22:26:47.656Z,5.18
2023-05-14T22:29:14.164Z,6.03
2023-05-14T22:31:40.647Z,5.50
2023-05-14T22:34:07.232Z,6.22
2023-05-14T22:36:33.722Z,6.13
2023-05-14T22:39:00.223Z,6.63
2023-05-14T22:41:26.767Z,6.45
2023-05-14T22:43:53.210Z,6.45
2023-05-14T22:46:21.131Z,7.15
2023-05-14T22:48:49.165Z,6.95
2023-05-14T22:51:16.298Z,7.15
2023-05-14T22:53:42.778Z,7.95
2023-05-14T22:56:09.240Z,7.78
2023-05-14T22:58:35.913Z,7.93
2023-05-14T23:01:02.437Z,7.32
2023-05-14T23:03:29.626Z,7.75
2023-05-14T23:05:56.123Z,8.20
2023-05-14T23:08:22.625Z,8.63
2023-05-14T23:10:49.096Z,8.68
2023-05-14T23:13:15.664Z,9.07
2023-05-14T23:15:42.991Z,8.80
2023-05-14T23:18:09.618Z,9.35
2023-05-14T23:20:36.174Z,8.75
2023-05-14T23:23:02.659Z,8.73
2023-05-14T23:25:29.207Z,8.95
2023-05-14T23:27:55.719Z,9.50
2023-05-14T23:30:22.323Z,10.82
2023-05-14T23:32:48.842Z,9.68
2023-05-14T23:35:15.551Z,10.15
2023-05-14T23:37:47.064Z,9.35
2023-05-14T23:40:14.176Z,10.63
2023-05-14T23:42:40.732Z,9.55
2023-05-14T23:45:07.856Z,9.75
2023-05-14T23:47:34.712Z,11.02
2023-05-14T23:50:01.214Z,9.88
2023-05-14T23:52:27.665Z,10.05
2023-05-14T23:54:54.335Z,9.68
2023-05-14T23:57:20.941Z,10.23
2023-05-14T23:59:47.664Z,9.40
